Time;durP1;ratioP1;P1;durP2;ratioP2;P2;SDS_P1;SDS_P2;PMS_P1;PMS_P2;Temp;Humidity;BMP_temperature;BMP_pressure;BME280_temperature;BME280_humidity;BME280_pressure;Samples;Min_cycle;Max_cycle;Signal;HPM_P1;HPM_P2
2022/07/08 00:01:02;;;;;;;8.10;5.38;;;;;;;;;;5074462;28;20481;-62
2022/07/08 00:03:28;;;;;;;10.30;5.88;;;;;;;;;;5073902;28;20021;-62
2022/07/08 00:05:54;;;;;;;9.25;5.68;;;;;;;;;;5074366;28;20111;-63
2022/07/08 00:08:20;;;;;;;10.32;6.30;;;;;;;;;;5074103;28;20028;-62
2022/07/08 00:10:47;;;;;;;14.98;5.75;;;;;;;;;;5074236;28;20106;-62
2022/07/08 00:13:13;;;;;;;10.70;5.95;;;;;;;;;;5073956;28;20025;-62
2022/07/08 00:15:39;;;;;;;11.20;6.15;;;;;;;;;;5074223;28;20031;-62
2022/07/08 00:18:05;;;;;;;14.35;6.85;;;;;;;;;;5073795;28;20497;-63
2022/07/08 00:20:31;;;;;;;8.77;5.68;;;;;;;;;;5073713;28;20082;-62
2022/07/08 00:22:58;;;;;;;9.30;5.38;;;;;;;;;;5073822;28;20071;-63
2022/07/08 00:25:24;;;;;;;9.80;5.95;;;;;;;;;;5073313;28;20033;-62
2022/07/08 00:27:50;;;;;;;10.00;6.70;;;;;;;;;;5073615;28;20114;-62
2022/07/08 00:30:16;;;;;;;8.75;5.28;;;;;;;;;;5073654;28;20032;-62
2022/07/08 00:32:42;;;;;;;9.63;5.25;;;;;;;;;;5073692;28;20025;-63
2022/07/08 00:35:09;;;;;;;8.85;5.32;;;;;;;;;;5073787;28;20028;-63
2022/07/08 00:37:35;;;;;;;8.48;5.32;;;;;;;;;;5073555;28;20021;-63
2022/07/08 00:40:01;;;;;;;10.63;5.82;;;;;;;;;;5073670;28;20120;-63
2022/07/08 00:42:28;;;;;;;8.65;4.60;;;;;;;;;;5072773;28;20080;-63
2022/07/08 00:44:54;;;;;;;10.38;5.47;;;;;;;;;;5073589;28;20062;-62
2022/07/08 00:47:20;;;;;;;11.73;5.78;;;;;;;;;;5073212;28;20395;-63
2022/07/08 00:49:46;;;;;;;10.88;6.20;;;;;;;;;;5073246;28;20028;-63
2022/07/08 00:52:13;;;;;;;10.80;6.03;;;;;;;;;;5073111;28;20050;-63
2022/07/08 00:54:39;;;;;;;13.60;5.82;;;;;;;;;;5073426;28;20456;-63
2022/07/08 00:57:06;;;;;;;13.63;6.10;;;;;;;;;;5073338;28;20020;-63
2022/07/08 00:59:32;;;;;;;9.73;5.28;;;;;;;;;;5073062;28;20127;-63
2022/07/08 01:01:58;;;;;;;10.93;5.88;;;;;;;;;;5073091;28;20024;-63
2022/07/08 01:04:24;;;;;;;9.98;5.22;;;;;;;;;;5072964;28;20035;-62
2022/07/08 01:06:51;;;;;;;6.95;4.75;;;;;;;;;;5073280;28;20099;-63
2022/07/08 01:09:17;;;;;;;9.88;5.40;;;;;;;;;;5072814;28;20039;-63
2022/07/08 01:11:45;;;;;;;6.05;4.20;;;;;;;;;;5072424;28;20493;-62
2022/07/08 01:14:11;;;;;;;7.82;4.38;;;;;;;;;;5088578;28;20529;-62
2022/07/08 01:16:37;;;;;;;6.35;4.70;;;;;;;;;;5072414;28;20031;-63
2022/07/08 01:19:04;;;;;;;8.90;5.07;;;;;;;;;;5072820;28;20036;-63
2022/07/08 01:21:30;;;;;;;8.60;5.43;;;;;;;;;;5072654;28;20028;-62
2022/07/08 01:23:56;;;;;;;5.90;4.25;;;;;;;;;;5072776;28;20097;-62
2022/07/08 01:26:22;;;;;;;8.90;5.18;;;;;;;;;;5072599;28;20491;-63
2022/07/08 01:28:48;;;;;;;6.75;4.88;;;;;;;;;;5072472;28;20094;-63
2022/07/08 01:31:14;;;;;;;7.95;5.50;;;;;;;;;;5072255;28;20457;-62
2022/07/08 01:33:40;;;;;;;12.10;6.10;;;;;;;;;;5072393;28;20428;-62
2022/07/08 01:36:07;;;;;;;9.52;5.32;;;;;;;;;;5072781;28;20020;-62
2022/07/08 01:38:33;;;;;;;12.10;5.90;;;;;;;;;;5071776;28;20046;-63
2022/07/08 01:40:59;;;;;;;12.18;6.35;;;;;;;;;;5072462;28;20028;-63
2022/07/08 01:43:25;;;;;;;11.75;5.38;;;;;;;;;;5072664;28;20494;-62
2022/07/08 01:45:51;;;;;;;9.93;5.47;;;;;;;;;;5072062;28;20078;-62
2022/07/08 01:48:18;;;;;;;9.48;5.53;;;;;;;;;;5072269;28;20490;-63
2022/07/08 01:50:44;;;;;;;10.38;5.00;;;;;;;;;;5071811;28;20502;-63
2022/07/08 01:53:11;;;;;;;6.97;4.82;;;;;;;;;;5072434;28;20085;-63
2022/07/08 01:55:37;;;;;;;7.05;4.95;;;;;;;;;;5072118;28;20032;-63
2022/07/08 01:58:04;;;;;;;8.23;4.93;;;;;;;;;;5072183;28;20027;-63
2022/07/08 02:00:30;;;;;;;9.43;5.35;;;;;;;;;;5071700;28;20371;-63
2022/07/08 02:02:56;;;;;;;7.85;5.10;;;;;;;;;;5072151;28;20024;-63
2022/07/08 02:05:22;;;;;;;8.25;4.85;;;;;;;;;;5072238;28;20032;-63
2022/07/08 02:07:49;;;;;;;7.35;4.40;;;;;;;;;;5072223;28;20036;-63
2022/07/08 02:10:15;;;;;;;6.93;4.25;;;;;;;;;;5072043;28;20074;-63
2022/07/08 02:12:41;;;;;;;7.28;4.80;;;;;;;;;;5071630;28;20428;-63
2022/07/08 02:15:08;;;;;;;8.48;4.70;;;;;;;;;;5071764;28;20075;-63
2022/07/08 02:17:34;;;;;;;4.95;4.05;;;;;;;;;;5071937;28;20021;-63
2022/07/08 02:20:00;;;;;;;10.23;4.68;;;;;;;;;;5070858;28;20554;-63
2022/07/08 02:22:27;;;;;;;6.03;4.28;;;;;;;;;;5071587;28;20086;-62
2022/07/08 02:24:53;;;;;;;5.93;4.15;;;;;;;;;;5071814;28;20063;-63
2022/07/08 02:27:19;;;;;;;8.18;4.25;;;;;;;;;;5072014;28;20048;-63
2022/07/08 02:29:46;;;;;;;5.97;3.80;;;;;;;;;;5071300;28;20033;-62
2022/07/08 02:32:12;;;;;;;7.60;3.67;;;;;;;;;;5071766;28;20025;-63
2022/07/08 02:34:38;;;;;;;5.55;3.92;;;;;;;;;;5071777;28;20021;-63
2022/07/08 02:37:04;;;;;;;5.05;3.97;;;;;;;;;;5071833;28;20050;-63
2022/07/08 02:39:31;;;;;;;5.45;3.60;;;;;;;;;;5071854;28;20393;-63
2022/07/08 02:41:57;;;;;;;4.00;3.13;;;;;;;;;;5071881;28;20033;-62
2022/07/08 02:44:23;;;;;;;4.60;3.42;;;;;;;;;;5071489;28;20519;-63
2022/07/08 02:46:49;;;;;;;6.30;3.50;;;;;;;;;;5071771;28;20482;-63
2022/07/08 02:49:15;;;;;;;7.07;3.47;;;;;;;;;;5073911;28;20028;-63
2022/07/08 02:51:41;;;;;;;10.75;3.78;;;;;;;;;;5075309;28;20033;-63
2022/07/08 02:54:08;;;;;;;9.82;4.00;;;;;;;;;;5075654;28;20024;-62
2022/07/08 02:56:34;;;;;;;6.00;4.20;;;;;;;;;;5075262;28;20445;-62
2022/07/08 02:59:01;;;;;;;4.72;3.45;;;;;;;;;;5075616;28;20029;-62
2022/07/08 03:01:27;;;;;;;5.68;4.07;;;;;;;;;;5074416;28;20059;-63
2022/07/08 03:03:53;;;;;;;6.35;4.07;;;;;;;;;;5075377;28;20024;-63
2022/07/08 03:06:19;;;;;;;8.00;4.82;;;;;;;;;;5074956;28;20075;-63
2022/07/08 03:08:45;;;;;;;7.20;4.68;;;;;;;;;;5075345;28;20056;-62
2022/07/08 03:11:12;;;;;;;6.50;4.60;;;;;;;;;;5073888;28;20036;-62
2022/07/08 03:13:38;;;;;;;7.70;4.05;;;;;;;;;;5074823;28;20103;-63
2022/07/08 03:16:05;;;;;;;6.78;3.78;;;;;;;;;;5075265;28;20052;-64
2022/07/08 03:18:32;;;;;;;5.10;3.60;;;;;;;;;;5073649;28;20017;-64
2022/07/08 03:20:58;;;;;;;4.68;3.72;;;;;;;;;;5057214;28;20092;-64
2022/07/08 03:23:24;;;;;;;6.25;3.95;;;;;;;;;;5075020;28;20502;-64
2022/07/08 03:25:50;;;;;;;5.50;3.55;;;;;;;;;;5074374;28;20037;-64
2022/07/08 03:28:16;;;;;;;4.97;3.30;;;;;;;;;;5074296;28;20047;-64
2022/07/08 03:30:42;;;;;;;5.18;3.60;;;;;;;;;;5074524;28;20036;-64
2022/07/08 03:33:08;;;;;;;5.70;3.30;;;;;;;;;;5058344;28;20017;-64
2022/07/08 03:35:34;;;;;;;6.38;4.70;;;;;;;;;;5074798;28;20475;-63
2022/07/08 03:38:01;;;;;;;6.03;4.57;;;;;;;;;;5074358;28;20021;-63
2022/07/08 03:43:11;;;;;;;5.47;4.40;;;;;;;;;;5074703;28;20032;-63
2022/07/08 03:45:38;;;;;;;8.88;4.45;;;;;;;;;;5074654;28;20051;-64
2022/07/08 03:48:04;;;;;;;8.70;4.40;;;;;;;;;;5073654;28;20028;-64
2022/07/08 03:50:30;;;;;;;7.28;4.57;;;;;;;;;;5073901;28;20033;-64
2022/07/08 03:52:56;;;;;;;11.43;4.88;;;;;;;;;;5074001;28;20043;-64
2022/07/08 03:55:24;;;;;;;10.98;6.13;;;;;;;;;;5073048;28;20032;-64
2022/07/08 03:57:51;;;;;;;11.70;5.95;;;;;;;;;;5074418;28;20448;-65
2022/07/08 04:00:19;;;;;;;9.13;5.70;;;;;;;;;;5070898;28;20016;-65
2022/07/08 04:02:45;;;;;;;18.80;8.13;;;;;;;;;;5064409;28;20059;-64
2022/07/08 04:05:12;;;;;;;10.65;5.82;;;;;;;;;;5069071;28;20402;-63
2022/07/08 04:07:39;;;;;;;12.50;5.68;;;;;;;;;;5074541;28;20120;-63
2022/07/08 04:10:05;;;;;;;8.35;5.07;;;;;;;;;;5074426;28;20028;-63
2022/07/08 04:12:32;;;;;;;11.15;5.28;;;;;;;;;;5069197;28;20028;-63
2022/07/08 04:14:58;;;;;;;6.55;4.32;;;;;;;;;;5070595;28;20072;-63
2022/07/08 04:17:24;;;;;;;13.50;5.90;;;;;;;;;;5073940;28;20509;-63
2022/07/08 04:19:50;;;;;;;9.93;4.85;;;;;;;;;;5073876;28;20039;-63
2022/07/08 04:22:16;;;;;;;13.90;4.90;;;;;;;;;;5073405;28;20028;-63
2022/07/08 04:24:43;;;;;;;7.95;5.43;;;;;;;;;;5071901;28;20032;-63
2022/07/08 04:27:09;;;;;;;9.07;5.70;;;;;;;;;;5072643;28;20517;-63
2022/07/08 04:29:35;;;;;;;12.57;7.00;;;;;;;;;;5073218;28;20032;-63
2022/07/08 04:32:01;;;;;;;13.65;6.55;;;;;;;;;;5073352;28;20021;-63
2022/07/08 04:34:27;;;;;;;14.35;6.60;;;;;;;;;;5073462;28;20103;-63
2022/07/08 04:36:53;;;;;;;12.10;6.20;;;;;;;;;;5072872;28;20024;-63
2022/07/08 04:39:19;;;;;;;8.05;5.07;;;;;;;;;;5072490;28;20032;-63
2022/07/08 04:41:46;;;;;;;11.55;5.20;;;;;;;;;;5072662;28;20021;-63
2022/07/08 04:44:12;;;;;;;7.63;4.65;;;;;;;;;;5073124;28;20480;-63
2022/07/08 04:46:38;;;;;;;8.68;4.78;;;;;;;;;;5073223;28;20393;-63
2022/07/08 04:49:04;;;;;;;6.72;4.28;;;;;;;;;;5072386;28;20047;-63
2022/07/08 04:51:30;;;;;;;6.63;4.80;;;;;;;;;;5072985;28;20024;-63
2022/07/08 04:53:56;;;;;;;7.32;4.38;;;;;;;;;;5072775;28;20103;-63
2022/07/08 04:56:23;;;;;;;9.25;4.65;;;;;;;;;;5073013;28;20064;-63
2022/07/08 04:58:49;;;;;;;8.75;4.68;;;;;;;;;;5073209;28;20486;-63
2022/07/08 05:01:17;;;;;;;10.73;6.13;;;;;;;;;;5072418;28;20064;-63
2022/07/08 05:03:44;;;;;;;28.08;7.20;;;;;;;;;;5073158;28;20021;-63
2022/07/08 05:06:10;;;;;;;25.88;7.15;;;;;;;;;;5072339;28;20085;-63
2022/07/08 05:08:36;;;;;;;18.13;6.63;;;;;;;;;;5069787;28;20036;-63
2022/07/08 05:11:02;;;;;;;33.42;6.97;;;;;;;;;;5067647;28;20032;-63
2022/07/08 05:13:28;;;;;;;17.15;6.40;;;;;;;;;;5068081;28;20073;-63
2022/07/08 05:15:54;;;;;;;25.80;6.70;;;;;;;;;;5071051;28;20146;-63
2022/07/08 05:18:20;;;;;;;21.45;6.60;;;;;;;;;;5067860;28;20103;-63
2022/07/08 05:20:46;;;;;;;16.77;6.53;;;;;;;;;;5069736;28;20155;-63
2022/07/08 05:23:13;;;;;;;9.02;5.45;;;;;;;;;;5069432;28;20029;-63
2022/07/08 05:25:39;;;;;;;7.82;5.75;;;;;;;;;;5068552;28;20031;-63
2022/07/08 05:28:05;;;;;;;10.30;6.50;;;;;;;;;;5070000;28;20422;-63
2022/07/08 05:30:31;;;;;;;16.73;7.25;;;;;;;;;;5070695;28;20090;-63
2022/07/08 05:32:57;;;;;;;11.30;7.20;;;;;;;;;;5066665;28;20028;-63
2022/07/08 05:35:23;;;;;;;11.30;7.22;;;;;;;;;;5070169;28;20031;-63
2022/07/08 05:37:50;;;;;;;10.20;6.53;;;;;;;;;;5070105;28;20092;-63
2022/07/08 05:40:16;;;;;;;11.88;6.38;;;;;;;;;;5069685;28;20558;-63
2022/07/08 05:42:42;;;;;;;7.20;5.45;;;;;;;;;;5068163;28;20039;-63
2022/07/08 05:45:09;;;;;;;10.70;5.90;;;;;;;;;;5070943;28;20054;-63
2022/07/08 05:47:35;;;;;;;8.77;6.00;;;;;;;;;;5071817;28;20490;-63
2022/07/08 05:50:01;;;;;;;7.55;5.72;;;;;;;;;;5070301;28;20097;-63
2022/07/08 05:52:27;;;;;;;7.85;5.95;;;;;;;;;;5069234;28;20081;-63
2022/07/08 05:54:53;;;;;;;8.30;5.88;;;;;;;;;;5071945;28;20035;-63
2022/07/08 05:57:19;;;;;;;6.50;4.80;;;;;;;;;;5068811;28;20048;-76
2022/07/08 05:59:46;;;;;;;6.95;5.57;;;;;;;;;;5068997;28;20063;-66
2022/07/08 06:02:12;;;;;;;9.90;5.15;;;;;;;;;;5066300;28;20032;-65
2022/07/08 06:04:38;;;;;;;7.13;5.75;;;;;;;;;;5056890;28;20028;-65
2022/07/08 06:07:04;;;;;;;7.32;5.00;;;;;;;;;;5056528;28;20036;-64
2022/07/08 06:09:31;;;;;;;8.45;5.25;;;;;;;;;;5063454;28;20032;-64
2022/07/08 06:11:57;;;;;;;7.93;5.78;;;;;;;;;;5056598;28;20017;-64
2022/07/08 06:14:23;;;;;;;7.55;5.53;;;;;;;;;;5055646;28;20449;-64
2022/07/08 06:16:49;;;;;;;7.57;4.78;;;;;;;;;;5053679;28;20021;-64
2022/07/08 06:19:16;;;;;;;8.85;5.53;;;;;;;;;;5057397;28;20024;-64
2022/07/08 06:21:42;;;;;;;8.13;5.63;;;;;;;;;;5056907;28;20489;-64
2022/07/08 06:24:08;;;;;;;9.38;5.95;;;;;;;;;;5057977;28;20033;-64
2022/07/08 06:26:35;;;;;;;7.65;5.28;;;;;;;;;;5058240;28;20115;-65
2022/07/08 06:29:01;;;;;;;9.55;5.13;;;;;;;;;;5056803;28;20044;-65
2022/07/08 06:31:27;;;;;;;7.07;5.72;;;;;;;;;;5050532;28;20424;-64
2022/07/08 06:33:56;;;;;;;10.65;6.18;;;;;;;;;;5051699;28;20031;-64
2022/07/08 06:36:25;;;;;;;9.35;6.00;;;;;;;;;;5053341;28;20096;-64
2022/07/08 06:38:52;;;;;;;9.68;5.85;;;;;;;;;;5052487;28;20113;-64
2022/07/08 06:41:18;;;;;;;8.63;5.95;;;;;;;;;;5054139;28;20036;-64
2022/07/08 06:43:45;;;;;;;9.68;6.18;;;;;;;;;;5051663;28;20112;-64
2022/07/08 06:46:11;;;;;;;8.30;5.63;;;;;;;;;;5050735;28;20020;-64
2022/07/08 06:48:37;;;;;;;8.63;5.95;;;;;;;;;;5054151;28;20033;-64
2022/07/08 06:51:03;;;;;;;9.18;6.45;;;;;;;;;;5054838;28;20437;-64
2022/07/08 06:54:34;;;;;;;9.57;6.05;;;;;;;;;;5052269;28;20033;-64
2022/07/08 06:56:18;;;;;;;10.18;6.60;;;;;;;;;;5052910;28;20037;-64
2022/07/08 06:58:44;;;;;;;11.65;7.43;;;;;;;;;;5059817;28;20214;-64
2022/07/08 07:01:11;;;;;;;8.93;6.03;;;;;;;;;;5059549;28;20025;-64
2022/07/08 07:03:40;;;;;;;8.07;5.72;;;;;;;;;;5050013;28;20029;-64
2022/07/08 07:06:06;;;;;;;10.73;5.93;;;;;;;;;;5052664;28;20035;-65
2022/07/08 07:08:32;;;;;;;11.90;6.30;;;;;;;;;;5054530;28;20487;-65
2022/07/08 07:10:58;;;;;;;11.60;6.35;;;;;;;;;;5054753;28;20566;-65
2022/07/08 07:13:24;;;;;;;18.38;6.20;;;;;;;;;;5050934;28;20021;-65
2022/07/08 07:15:51;;;;;;;8.93;5.60;;;;;;;;;;5051937;28;20487;-65
2022/07/08 07:18:17;;;;;;;9.63;5.38;;;;;;;;;;5053621;28;20066;-65
2022/07/08 07:20:43;;;;;;;10.13;6.15;;;;;;;;;;5053608;28;20024;-65
2022/07/08 07:23:09;;;;;;;9.20;5.10;;;;;;;;;;5052442;28;20040;-66
2022/07/08 07:25:35;;;;;;;12.70;5.72;;;;;;;;;;5052195;28;20025;-65
2022/07/08 07:28:01;;;;;;;10.82;5.50;;;;;;;;;;5053204;28;20548;-65
2022/07/08 07:30:27;;;;;;;6.05;4.30;;;;;;;;;;5052107;28;20043;-65
2022/07/08 07:32:53;;;;;;;8.57;5.40;;;;;;;;;;5051906;28;20017;-65
2022/07/08 07:35:20;;;;;;;8.77;5.45;;;;;;;;;;5052402;28;20445;-65
2022/07/08 07:37:47;;;;;;;9.88;4.63;;;;;;;;;;5058080;28;20124;-65
2022/07/08 07:40:13;;;;;;;8.88;5.25;;;;;;;;;;5055812;28;20031;-65
2022/07/08 07:42:39;;;;;;;11.10;5.97;;;;;;;;;;5055674;28;20021;-65
2022/07/08 07:45:06;;;;;;;9.00;4.70;;;;;;;;;;5054490;28;20071;-65
2022/07/08 07:47:32;;;;;;;7.00;3.80;;;;;;;;;;5053650;28;20025;-65
2022/07/08 07:49:58;;;;;;;8.27;4.68;;;;;;;;;;5055471;28;20047;-65
2022/07/08 07:52:24;;;;;;;8.88;4.47;;;;;;;;;;5057044;28;20024;-65
2022/07/08 07:54:50;;;;;;;7.50;4.03;;;;;;;;;;5055281;28;20037;-65
2022/07/08 07:57:16;;;;;;;7.30;4.53;;;;;;;;;;5054851;28;20025;-65
2022/07/08 07:59:44;;;;;;;8.18;3.97;;;;;;;;;;5055068;28;20070;-65
2022/07/08 08:02:10;;;;;;;7.07;4.47;;;;;;;;;;5054232;28;20009;-65
2022/07/08 08:04:36;;;;;;;6.35;4.07;;;;;;;;;;5053698;28;20087;-65
2022/07/08 08:07:02;;;;;;;7.65;3.75;;;;;;;;;;5055507;28;20051;-64
2022/07/08 08:09:28;;;;;;;6.28;3.95;;;;;;;;;;5057314;28;20037;-65
2022/07/08 08:11:54;;;;;;;7.50;3.38;;;;;;;;;;5057042;28;20040;-64
2022/07/08 08:14:20;;;;;;;5.68;3.20;;;;;;;;;;5052992;28;20044;-64
2022/07/08 08:16:46;;;;;;;7.65;2.60;;;;;;;;;;5055681;28;20020;-64
2022/07/08 08:19:13;;;;;;;5.28;3.00;;;;;;;;;;5055189;28;20029;-65
2022/07/08 08:21:39;;;;;;;5.93;3.40;;;;;;;;;;5054394;28;20032;-64
2022/07/08 08:24:05;;;;;;;7.65;2.75;;;;;;;;;;5055516;28;20047;-64
2022/07/08 08:26:31;;;;;;;6.20;2.70;;;;;;;;;;5057855;28;20029;-64
2022/07/08 08:28:58;;;;;;;7.18;2.70;;;;;;;;;;5056469;28;20077;-64
2022/07/08 08:31:24;;;;;;;6.28;2.70;;;;;;;;;;5052907;28;20063;-64
2022/07/08 08:33:51;;;;;;;5.25;2.17;;;;;;;;;;5053139;28;20052;-64
2022/07/08 08:36:17;;;;;;;10.35;2.47;;;;;;;;;;5053534;28;20441;-64
2022/07/08 08:38:43;;;;;;;3.95;2.20;;;;;;;;;;5056753;28;20548;-64
2022/07/08 08:41:10;;;;;;;10.93;2.15;;;;;;;;;;5055427;28;20020;-64
2022/07/08 08:43:36;;;;;;;4.82;2.33;;;;;;;;;;5058514;28;20036;-64
2022/07/08 08:46:02;;;;;;;3.33;1.60;;;;;;;;;;5063819;28;20025;-64
2022/07/08 08:48:31;;;;;;;3.80;2.17;;;;;;;;;;5054509;28;20028;-64
2022/07/08 08:50:57;;;;;;;4.82;1.52;;;;;;;;;;5053034;28;20040;-64
2022/07/08 08:53:37;;;;;;;3.80;1.60;;;;;;;;;;5052774;28;20371;-64
2022/07/08 08:56:04;;;;;;;3.95;1.70;;;;;;;;;;5056989;28;20597;-64
2022/07/08 08:58:31;;;;;;;3.42;1.60;;;;;;;;;;5055085;28;20025;-64
2022/07/08 09:00:57;;;;;;;4.68;1.75;;;;;;;;;;5054890;28;20029;-64
2022/07/08 09:03:23;;;;;;;3.25;1.60;;;;;;;;;;5053147;28;20033;-64
2022/07/08 09:05:50;;;;;;;5.78;2.00;;;;;;;;;;5052108;28;20459;-64
2022/07/08 09:08:16;;;;;;;9.55;2.20;;;;;;;;;;5063225;28;20776;-64
2022/07/08 09:10:43;;;;;;;4.35;2.33;;;;;;;;;;5064326;28;20025;-65
2022/07/08 09:13:14;;;;;;;5.30;2.20;;;;;;;;;;5058196;28;20029;-64
2022/07/08 09:15:44;;;;;;;5.07;2.38;;;;;;;;;;5053847;28;20443;-64
2022/07/08 09:18:12;;;;;;;4.85;2.38;;;;;;;;;;5052999;28;20025;-64
2022/07/08 09:20:39;;;;;;;3.05;1.80;;;;;;;;;;5068558;28;20031;-64
2022/07/08 09:23:09;;;;;;;5.45;2.70;;;;;;;;;;5070218;28;20029;-64
2022/07/08 09:25:35;;;;;;;8.88;2.40;;;;;;;;;;5056767;28;20060;-64
2022/07/08 09:28:01;;;;;;;4.50;2.72;;;;;;;;;;5058492;28;20099;-64
2022/07/08 09:30:29;;;;;;;8.30;2.70;;;;;;;;;;5053272;28;20075;-64
2022/07/08 09:33:01;;;;;;;4.90;2.90;;;;;;;;;;5052059;28;20162;-64
2022/07/08 09:35:27;;;;;;;;;;;;;;;;;;5054510;28;20028;-64
2022/07/08 09:37:53;;;;;;;5.82;2.55;;;;;;;;;;5052984;28;19919;-64
2022/07/08 09:40:20;;;;;;;5.40;2.55;;;;;;;;;;5052880;28;20064;-65
2022/07/08 09:42:46;;;;;;;2.78;1.90;;;;;;;;;;5055349;28;20073;-64
2022/07/08 09:45:12;;;;;;;3.47;2.33;;;;;;;;;;5053267;28;20056;-64
2022/07/08 09:47:38;;;;;;;3.67;2.10;;;;;;;;;;5053622;28;20036;-64
2022/07/08 09:50:08;;;;;;;5.90;2.70;;;;;;;;;;5052717;28;20033;-64
2022/07/08 09:52:35;;;;;;;3.95;2.20;;;;;;;;;;5052141;28;20021;-64
2022/07/08 09:55:02;;;;;;;3.38;2.40;;;;;;;;;;5050165;28;20024;-64
2022/07/08 09:57:32;;;;;;;4.53;1.95;;;;;;;;;;5056142;28;20028;-64
2022/07/08 09:59:58;;;;;;;4.78;2.13;;;;;;;;;;5053072;28;20495;-64
2022/07/08 10:02:25;;;;;;;3.58;1.80;;;;;;;;;;5050806;28;20039;-64
2022/07/08 10:04:51;;;;;;;4.60;2.60;;;;;;;;;;5050291;28;20025;-64
2022/07/08 10:07:17;;;;;;;3.38;2.00;;;;;;;;;;5060204;28;20048;-64
2022/07/08 10:09:44;;;;;;;4.13;1.77;;;;;;;;;;5055861;28;20116;-64
2022/07/08 10:12:14;;;;;;;4.47;1.90;;;;;;;;;;5065270;28;20074;-65
2022/07/08 10:14:43;;;;;;;2.97;1.73;;;;;;;;;;5069937;28;20025;-64
2022/07/08 10:17:12;;;;;;;5.22;1.85;;;;;;;;;;5071128;28;20028;-65
2022/07/08 10:19:39;;;;;;;3.03;2.15;;;;;;;;;;5071673;28;20020;-65
2022/07/08 10:22:06;;;;;;;6.50;2.30;;;;;;;;;;5071235;28;20055;-65
2022/07/08 10:24:33;;;;;;;2.92;1.65;;;;;;;;;;5070779;28;20032;-64
2022/07/08 10:27:00;;;;;;;8.13;2.25;;;;;;;;;;5069859;28;20021;-64
2022/07/08 10:29:30;;;;;;;6.10;1.83;;;;;;;;;;5070816;28;20021;-64
2022/07/08 10:31:56;;;;;;;5.68;2.17;;;;;;;;;;5070556;28;20066;-64
2022/07/08 10:34:29;;;;;;;5.82;2.50;;;;;;;;;;5070939;28;20024;-64
2022/07/08 10:36:55;;;;;;;5.63;2.20;;;;;;;;;;5068509;28;20041;-64
2022/07/08 10:39:28;;;;;;;3.28;2.20;;;;;;;;;;5070414;28;20088;-64
2022/07/08 10:41:58;;;;;;;3.88;1.92;;;;;;;;;;5068593;28;20454;-65
2022/07/08 10:44:43;;;;;;;5.43;2.60;;;;;;;;;;5068464;28;20036;-65
2022/07/08 10:47:10;;;;;;;5.35;2.22;;;;;;;;;;5059132;28;20485;-65
2022/07/08 10:49:40;;;;;;;3.28;1.85;;;;;;;;;;5063383;28;20016;-65
2022/07/08 10:52:06;;;;;;;4.15;1.90;;;;;;;;;;5060965;28;20021;-65
2022/07/08 10:54:42;;;;;;;3.47;1.70;;;;;;;;;;5067701;28;20494;-65
2022/07/08 10:57:08;;;;;;;3.35;1.90;;;;;;;;;;5064204;28;20032;-64
2022/07/08 10:59:35;;;;;;;2.70;1.83;;;;;;;;;;5065764;28;20074;-64
2022/07/08 11:02:03;;;;;;;2.63;1.80;;;;;;;;;;5059498;28;20036;-64
2022/07/08 11:04:29;;;;;;;4.88;2.03;;;;;;;;;;5066525;28;20043;-64
2022/07/08 11:06:57;;;;;;;3.97;1.92;;;;;;;;;;5064779;28;20029;-64
2022/07/08 11:09:26;;;;;;;5.55;2.75;;;;;;;;;;5063273;28;20032;-64
2022/07/08 11:11:52;;;;;;;3.45;2.40;;;;;;;;;;5067910;28;20020;-64
2022/07/08 11:14:18;;;;;;;3.08;1.83;;;;;;;;;;5068065;28;20044;-64
2022/07/08 11:16:45;;;;;;;3.42;1.48;;;;;;;;;;5066481;28;20016;-65
2022/07/08 11:19:11;;;;;;;3.05;1.38;;;;;;;;;;5068160;28;20020;-65
2022/07/08 11:21:37;;;;;;;2.38;1.30;;;;;;;;;;5071852;28;20032;-65
2022/07/08 11:24:04;;;;;;;2.05;1.67;;;;;;;;;;5065524;28;21145;-65
2022/07/08 11:26:30;;;;;;;2.88;1.85;;;;;;;;;;5066163;28;20082;-65
2022/07/08 11:28:56;;;;;;;6.13;1.55;;;;;;;;;;5064467;28;20832;-64
2022/07/08 11:31:26;;;;;;;3.05;1.80;;;;;;;;;;5069486;28;20489;-65
2022/07/08 11:33:53;;;;;;;2.17;1.60;;;;;;;;;;5071146;28;20028;-64
2022/07/08 11:36:20;;;;;;;6.30;1.40;;;;;;;;;;5069947;28;20038;-64
2022/07/08 11:38:47;;;;;;;3.38;1.52;;;;;;;;;;5067176;28;20025;-64
2022/07/08 11:41:13;;;;;;;2.20;1.50;;;;;;;;;;5065551;28;20043;-64
2022/07/08 11:43:39;;;;;;;4.35;2.10;;;;;;;;;;5058440;28;20032;-64
2022/07/08 11:46:15;;;;;;;2.85;1.70;;;;;;;;;;5063637;28;20048;-64
2022/07/08 11:48:41;;;;;;;4.80;1.30;;;;;;;;;;5064084;28;20035;-64
2022/07/08 11:51:07;;;;;;;5.40;1.77;;;;;;;;;;5065658;28;20025;-64
2022/07/08 11:53:33;;;;;;;1.98;1.38;;;;;;;;;;5065372;28;20044;-65
2022/07/08 11:55:59;;;;;;;1.60;1.20;;;;;;;;;;5067834;28;20390;-65
2022/07/08 11:58:26;;;;;;;1.92;1.30;;;;;;;;;;5064445;28;20024;-64
2022/07/08 12:00:52;;;;;;;3.28;1.40;;;;;;;;;;5066352;28;20887;-64
2022/07/08 12:03:18;;;;;;;2.17;1.42;;;;;;;;;;5070448;28;20068;-64
2022/07/08 12:05:46;;;;;;;2.50;1.50;;;;;;;;;;5070027;28;20876;-65
2022/07/08 12:08:13;;;;;;;3.17;1.60;;;;;;;;;;5067745;28;20158;-64
2022/07/08 12:10:39;;;;;;;4.13;1.33;;;;;;;;;;5067797;28;20028;-64
2022/07/08 12:13:05;;;;;;;1.83;1.45;;;;;;;;;;5071002;28;20024;-64
2022/07/08 12:15:35;;;;;;;4.00;1.40;;;;;;;;;;5059318;28;20107;-64
2022/07/08 12:18:01;;;;;;;3.30;1.70;;;;;;;;;;5063353;28;20375;-64
2022/07/08 12:20:31;;;;;;;3.45;1.48;;;;;;;;;;5067567;28;20028;-64
2022/07/08 12:22:57;;;;;;;5.75;1.45;;;;;;;;;;5064372;28;20067;-64
2022/07/08 12:25:24;;;;;;;3.35;1.23;;;;;;;;;;5063992;28;20468;-64
2022/07/08 12:27:57;;;;;;;3.47;1.50;;;;;;;;;;5067012;28;20044;-64
2022/07/08 12:30:29;;;;;;;2.90;1.50;;;;;;;;;;5067927;28;20040;-64
2022/07/08 12:32:55;;;;;;;;;;;;;;;;;;5066590;28;20037;-64
2022/07/08 12:35:31;;;;;;;5.15;1.48;;;;;;;;;;5068568;28;19904;-64
2022/07/08 12:38:07;;;;;;;1.92;1.10;;;;;;;;;;5067057;28;20035;-64
2022/07/08 12:40:40;;;;;;;3.20;1.45;;;;;;;;;;5068052;28;20073;-64
2022/07/08 12:43:07;;;;;;;4.57;1.17;;;;;;;;;;5067151;28;20472;-64
2022/07/08 12:45:34;;;;;;;4.55;1.52;;;;;;;;;;5065059;28;20021;-64
2022/07/08 12:48:00;;;;;;;2.67;1.40;;;;;;;;;;5069114;28;20021;-64
2022/07/08 12:50:27;;;;;;;3.78;1.45;;;;;;;;;;5065905;28;20379;-64
2022/07/08 12:52:54;;;;;;;1.95;1.40;;;;;;;;;;5067223;28;20051;-63
2022/07/08 12:55:20;;;;;;;2.97;1.80;;;;;;;;;;5065718;28;20386;-63
2022/07/08 12:57:47;;;;;;;3.28;1.50;;;;;;;;;;5067934;28;20401;-63
2022/07/08 13:00:13;;;;;;;2.33;1.58;;;;;;;;;;5065426;28;20023;-63
2022/07/08 13:02:39;;;;;;;2.80;1.27;;;;;;;;;;5066291;28;20090;-63
2022/07/08 13:05:06;;;;;;;2.00;1.50;;;;;;;;;;5066101;28;20020;-63
2022/07/08 13:07:32;;;;;;;5.60;1.35;;;;;;;;;;5067460;28;20036;-63
2022/07/08 13:09:58;;;;;;;2.78;1.20;;;;;;;;;;5067825;28;20028;-63
2022/07/08 13:12:25;;;;;;;2.20;1.15;;;;;;;;;;5067234;28;20147;-63
2022/07/08 13:14:54;;;;;;;4.63;1.35;;;;;;;;;;5065754;28;20016;-63
2022/07/08 13:17:20;;;;;;;5.03;1.50;;;;;;;;;;5068104;28;20024;-64
2022/07/08 13:19:46;;;;;;;5.93;1.40;;;;;;;;;;5067676;28;20029;-64
2022/07/08 13:22:12;;;;;;;4.47;1.35;;;;;;;;;;5067749;28;20031;-64
2022/07/08 13:24:38;;;;;;;5.10;1.40;;;;;;;;;;5065663;28;20035;-63
2022/07/08 13:27:05;;;;;;;3.42;1.45;;;;;;;;;;5065050;28;20075;-64
2022/07/08 13:29:32;;;;;;;2.45;1.45;;;;;;;;;;5055724;28;20036;-64
2022/07/08 13:31:58;;;;;;;2.83;1.38;;;;;;;;;;5056289;28;20020;-64
2022/07/08 13:34:24;;;;;;;3.35;1.30;;;;;;;;;;5067794;28;20031;-64
2022/07/08 13:36:50;;;;;;;2.35;1.42;;;;;;;;;;5058441;28;20494;-64
2022/07/08 13:39:16;;;;;;;3.03;1.27;;;;;;;;;;5069175;28;20013;-64
2022/07/08 13:41:43;;;;;;;4.05;1.23;;;;;;;;;;5056885;28;20021;-64
2022/07/08 13:44:09;;;;;;;3.15;1.25;;;;;;;;;;5058821;28;20497;-64
2022/07/08 13:46:35;;;;;;;1.95;1.25;;;;;;;;;;5059305;28;20036;-64
2022/07/08 13:49:01;;;;;;;6.60;1.67;;;;;;;;;;5060727;28;20528;-64
2022/07/08 13:51:31;;;;;;;1.52;1.27;;;;;;;;;;5059646;28;20044;-64
2022/07/08 13:53:57;;;;;;;8.98;1.67;;;;;;;;;;5060264;28;20024;-64
2022/07/08 13:56:24;;;;;;;4.80;1.70;;;;;;;;;;5060496;28;20055;-64
2022/07/08 13:58:50;;;;;;;6.35;1.73;;;;;;;;;;5061857;28;20434;-64
2022/07/08 14:01:16;;;;;;;3.50;1.10;;;;;;;;;;5064765;28;20402;-64
2022/07/08 14:03:42;;;;;;;4.97;1.42;;;;;;;;;;5068011;28;20028;-64
2022/07/08 14:06:09;;;;;;;3.03;1.20;;;;;;;;;;5063025;28;20398;-64
2022/07/08 14:08:35;;;;;;;4.70;1.95;;;;;;;;;;5062546;28;20051;-64
2022/07/08 14:11:03;;;;;;;3.00;1.48;;;;;;;;;;5060827;28;20123;-64
2022/07/08 14:13:30;;;;;;;3.10;1.65;;;;;;;;;;5059717;28;20025;-64
2022/07/08 14:15:56;;;;;;;4.03;1.42;;;;;;;;;;5062569;28;20057;-64
2022/07/08 14:18:22;;;;;;;3.10;1.58;;;;;;;;;;5059132;28;20033;-64
2022/07/08 14:20:48;;;;;;;5.60;1.88;;;;;;;;;;5055470;28;20036;-64
2022/07/08 14:23:15;;;;;;;2.63;1.50;;;;;;;;;;5063907;28;20584;-64
2022/07/08 14:25:41;;;;;;;1.83;1.20;;;;;;;;;;5063015;28;20079;-64
2022/07/08 14:28:07;;;;;;;7.25;1.00;;;;;;;;;;5062985;28;20052;-64
2022/07/08 14:30:33;;;;;;;3.78;1.40;;;;;;;;;;5060517;28;20028;-64
2022/07/08 14:32:59;;;;;;;3.42;1.35;;;;;;;;;;5057326;28;20024;-64
2022/07/08 14:35:25;;;;;;;2.15;1.42;;;;;;;;;;5056264;28;20056;-64
2022/07/08 14:37:51;;;;;;;2.80;1.50;;;;;;;;;;5057923;28;20063;-64
2022/07/08 14:40:18;;;;;;;1.83;1.20;;;;;;;;;;5056190;28;20483;-64